sensor_id;sensor_type;location;lat;lon;timestamp;P1;durP1;ratioP1;P2;durP2;ratioP2
21675;SDS011;10999;51.332;9.458;2023-05-21T00:00:23;12.40;;;6.03;;
21675;SDS011;10999;51.332;9.458;2023-05-21T00:02:50;15.27;;;7.22;;
21675;SDS011;10999;51.332;9.458;2023-05-21T00:05:17;12.88;;;6.80;;
21675;SDS011;10999;51.332;9.458;2023-05-21T00:07:44;13.88;;;6.93;;
21675;SDS011;10999;51.332;9.458;2023-05-21T00:10:12;13.43;;;5.97;;
21675;SDS011;10999;51.332;9.458;2023-05-21T00:12:39;13.20;;;6.78;;
21675;SDS011;10999;51.332;9.458;2023-05-21T00:15:07;12.25;;;6.07;;
21675;SDS011;10999;51.332;9.458;2023-05-21T00:17:34;13.73;;;7.00;;
21675;SDS011;10999;51.332;9.458;2023-05-21T00:20:02;14.00;;;6.45;;
21675;SDS011;10999;51.332;9.458;2023-05-21T00:22:33;12.63;;;6.60;;
21675;SDS011;10999;51.332;9.458;2023-05-21T00:25:01;12.10;;;6.32;;
21675;SDS011;10999;51.332;9.458;2023-05-21T00:27:28;13.38;;;6.75;;
21675;SDS011;10999;51.332;9.458;2023-05-21T00:29:55;11.57;;;6.15;;
21675;SDS011;10999;51.332;9.458;2023-05-21T00:32:22;12.52;;;6.57;;
21675;SDS011;10999;51.332;9.458;2023-05-21T00:34:49;13.63;;;6.47;;
21675;SDS011;10999;51.332;9.458;2023-05-21T00:37:15;17.27;;;7.53;;
21675;SDS011;10999;51.332;9.458;2023-05-21T00:39:42;14.60;;;7.35;;
21675;SDS011;10999;51.332;9.458;2023-05-21T00:42:09;13.65;;;6.80;;
21675;SDS011;10999;51.332;9.458;2023-05-21T00:44:37;12.48;;;7.07;;
21675;SDS011;10999;51.332;9.458;2023-05-21T00:47:04;12.13;;;6.65;;
21675;SDS011;10999;51.332;9.458;2023-05-21T00:49:31;13.38;;;7.25;;
21675;SDS011;10999;51.332;9.458;2023-05-21T00:51:58;14.82;;;6.93;;
21675;SDS011;10999;51.332;9.458;2023-05-21T00:54:27;15.25;;;8.00;;
21675;SDS011;10999;51.332;9.458;2023-05-21T00:56:56;14.57;;;7.22;;
21675;SDS011;10999;51.332;9.458;2023-05-21T00:59:24;14.45;;;6.50;;
21675;SDS011;10999;51.332;9.458;2023-05-21T01:01:51;14.07;;;7.25;;
21675;SDS011;10999;51.332;9.458;2023-05-21T01:04:24;15.40;;;6.72;;
21675;SDS011;10999;51.332;9.458;2023-05-21T01:06:51;14.02;;;6.70;;
21675;SDS011;10999;51.332;9.458;2023-05-21T01:09:18;14.32;;;7.03;;
21675;SDS011;10999;51.332;9.458;2023-05-21T01:11:46;12.57;;;7.32;;
21675;SDS011;10999;51.332;9.458;2023-05-21T01:14:16;15.35;;;7.95;;
21675;SDS011;10999;51.332;9.458;2023-05-21T01:16:45;14.40;;;7.10;;
21675;SDS011;10999;51.332;9.458;2023-05-21T01:19:19;15.05;;;7.32;;
21675;SDS011;10999;51.332;9.458;2023-05-21T01:21:51;15.07;;;7.45;;
21675;SDS011;10999;51.332;9.458;2023-05-21T01:24:21;13.85;;;7.50;;
21675;SDS011;10999;51.332;9.458;2023-05-21T01:26:48;14.18;;;7.15;;
21675;SDS011;10999;51.332;9.458;2023-05-21T01:29:15;15.10;;;8.13;;
21675;SDS011;10999;51.332;9.458;2023-05-21T01:31:45;14.65;;;8.45;;
21675;SDS011;10999;51.332;9.458;2023-05-21T01:34:25;14.43;;;8.32;;
21675;SDS011;10999;51.332;9.458;2023-05-21T01:37:06;12.70;;;7.15;;
21675;SDS011;10999;51.332;9.458;2023-05-21T01:39:38;14.10;;;7.28;;
21675;SDS011;10999;51.332;9.458;2023-05-21T01:42:10;14.75;;;8.15;;
21675;SDS011;10999;51.332;9.458;2023-05-21T01:44:38;15.70;;;7.90;;
21675;SDS011;10999;51.332;9.458;2023-05-21T01:47:05;17.52;;;7.82;;
21675;SDS011;10999;51.332;9.458;2023-05-21T01:49:32;15.52;;;7.75;;
21675;SDS011;10999;51.332;9.458;2023-05-21T01:51:59;15.63;;;8.63;;
21675;SDS011;10999;51.332;9.458;2023-05-21T01:54:27;16.13;;;8.43;;
21675;SDS011;10999;51.332;9.458;2023-05-21T01:56:54;14.20;;;7.20;;
21675;SDS011;10999;51.332;9.458;2023-05-21T01:59:21;14.77;;;7.88;;
21675;SDS011;10999;51.332;9.458;2023-05-21T02:01:48;15.15;;;7.95;;
21675;SDS011;10999;51.332;9.458;2023-05-21T02:04:15;14.77;;;8.60;;
21675;SDS011;10999;51.332;9.458;2023-05-21T02:06:42;13.93;;;7.72;;
21675;SDS011;10999;51.332;9.458;2023-05-21T02:09:09;16.15;;;8.88;;
21675;SDS011;10999;51.332;9.458;2023-05-21T02:11:36;14.23;;;8.65;;
21675;SDS011;10999;51.332;9.458;2023-05-21T02:14:03;15.32;;;8.38;;
21675;SDS011;10999;51.332;9.458;2023-05-21T02:16:29;16.48;;;8.38;;
21675;SDS011;10999;51.332;9.458;2023-05-21T02:18:56;15.73;;;8.40;;
21675;SDS011;10999;51.332;9.458;2023-05-21T02:21:25;17.55;;;8.85;;
21675;SDS011;10999;51.332;9.458;2023-05-21T02:23:52;16.48;;;8.50;;
21675;SDS011;10999;51.332;9.458;2023-05-21T02:26:19;16.50;;;8.38;;
21675;SDS011;10999;51.332;9.458;2023-05-21T02:28:47;16.02;;;8.23;;
21675;SDS011;10999;51.332;9.458;2023-05-21T02:31:14;16.67;;;8.15;;
21675;SDS011;10999;51.332;9.458;2023-05-21T02:33:41;14.57;;;8.13;;
21675;SDS011;10999;51.332;9.458;2023-05-21T02:36:08;17.75;;;9.10;;
21675;SDS011;10999;51.332;9.458;2023-05-21T02:38:38;16.80;;;8.50;;
21675;SDS011;10999;51.332;9.458;2023-05-21T02:41:09;16.52;;;9.55;;
21675;SDS011;10999;51.332;9.458;2023-05-21T02:43:36;16.25;;;8.35;;
21675;SDS011;10999;51.332;9.458;2023-05-21T02:46:04;16.88;;;8.48;;
21675;SDS011;10999;51.332;9.458;2023-05-21T02:48:31;20.13;;;9.70;;
21675;SDS011;10999;51.332;9.458;2023-05-21T02:50:58;15.93;;;8.88;;
21675;SDS011;10999;51.332;9.458;2023-05-21T02:53:25;17.48;;;9.15;;
21675;SDS011;10999;51.332;9.458;2023-05-21T02:55:52;16.00;;;8.40;;
21675;SDS011;10999;51.332;9.458;2023-05-21T02:58:18;16.10;;;8.60;;
21675;SDS011;10999;51.332;9.458;2023-05-21T03:00:48;15.02;;;8.10;;
21675;SDS011;10999;51.332;9.458;2023-05-21T03:03:15;17.27;;;8.65;;
21675;SDS011;10999;51.332;9.458;2023-05-21T03:05:42;15.02;;;8.60;;
21675;SDS011;10999;51.332;9.458;2023-05-21T03:08:08;18.75;;;9.43;;
21675;SDS011;10999;51.332;9.458;2023-05-21T03:10:35;18.63;;;9.02;;
21675;SDS011;10999;51.332;9.458;2023-05-21T03:13:02;17.83;;;9.38;;
21675;SDS011;10999;51.332;9.458;2023-05-21T03:15:34;15.65;;;8.23;;
21675;SDS011;10999;51.332;9.458;2023-05-21T03:18:04;17.15;;;9.65;;
21675;SDS011;10999;51.332;9.458;2023-05-21T03:20:31;18.42;;;9.23;;
21675;SDS011;10999;51.332;9.458;2023-05-21T03:22:58;16.77;;;9.02;;
21675;SDS011;10999;51.332;9.458;2023-05-21T03:25:25;17.70;;;9.75;;
21675;SDS011;10999;51.332;9.458;2023-05-21T03:27:52;20.00;;;9.40;;
21675;SDS011;10999;51.332;9.458;2023-05-21T03:30:19;21.65;;;10.82;;
21675;SDS011;10999;51.332;9.458;2023-05-21T03:32:46;19.27;;;9.52;;
21675;SDS011;10999;51.332;9.458;2023-05-21T03:35:13;18.25;;;9.68;;
21675;SDS011;10999;51.332;9.458;2023-05-21T03:37:39;19.27;;;9.73;;
21675;SDS011;10999;51.332;9.458;2023-05-21T03:40:06;18.77;;;9.85;;
21675;SDS011;10999;51.332;9.458;2023-05-21T03:42:33;18.20;;;10.35;;
21675;SDS011;10999;51.332;9.458;2023-05-21T03:45:02;17.23;;;9.88;;
21675;SDS011;10999;51.332;9.458;2023-05-21T03:47:29;18.00;;;9.85;;
21675;SDS011;10999;51.332;9.458;2023-05-21T03:49:56;17.85;;;9.45;;
21675;SDS011;10999;51.332;9.458;2023-05-21T03:52:22;18.40;;;10.35;;
21675;SDS011;10999;51.332;9.458;2023-05-21T03:54:49;20.10;;;10.80;;
21675;SDS011;10999;51.332;9.458;2023-05-21T03:57:16;19.60;;;10.25;;
21675;SDS011;10999;51.332;9.458;2023-05-21T03:59:43;20.55;;;9.93;;
21675;SDS011;10999;51.332;9.458;2023-05-21T04:02:10;19.15;;;10.68;;
21675;SDS011;10999;51.332;9.458;2023-05-21T04:04:37;22.13;;;11.40;;
21675;SDS011;10999;51.332;9.458;2023-05-21T04:07:03;19.65;;;10.15;;
21675;SDS011;10999;51.332;9.458;2023-05-21T04:09:30;18.13;;;9.98;;
21675;SDS011;10999;51.332;9.458;2023-05-21T04:11:59;21.13;;;10.52;;
21675;SDS011;10999;51.332;9.458;2023-05-21T04:14:25;19.98;;;9.82;;
21675;SDS011;10999;51.332;9.458;2023-05-21T04:16:52;21.63;;;10.95;;
21675;SDS011;10999;51.332;9.458;2023-05-21T04:19:19;19.30;;;9.90;;
21675;SDS011;10999;51.332;9.458;2023-05-21T04:21:45;19.90;;;10.85;;
21675;SDS011;10999;51.332;9.458;2023-05-21T04:24:12;18.25;;;9.85;;
21675;SDS011;10999;51.332;9.458;2023-05-21T04:26:39;21.27;;;10.13;;
21675;SDS011;10999;51.332;9.458;2023-05-21T04:29:07;19.58;;;9.85;;
21675;SDS011;10999;51.332;9.458;2023-05-21T04:31:35;21.52;;;10.65;;
21675;SDS011;10999;51.332;9.458;2023-05-21T04:34:01;19.10;;;10.43;;
21675;SDS011;10999;51.332;9.458;2023-05-21T04:36:28;21.17;;;11.15;;
21675;SDS011;10999;51.332;9.458;2023-05-21T04:38:55;20.08;;;9.95;;
21675;SDS011;10999;51.332;9.458;2023-05-21T04:41:22;21.63;;;10.82;;
21675;SDS011;10999;51.332;9.458;2023-05-21T04:43:49;18.98;;;10.82;;
21675;SDS011;10999;51.332;9.458;2023-05-21T04:46:20;19.77;;;10.30;;
21675;SDS011;10999;51.332;9.458;2023-05-21T04:48:51;19.58;;;10.73;;
21675;SDS011;10999;51.332;9.458;2023-05-21T04:51:20;20.77;;;11.00;;
21675;SDS011;10999;51.332;9.458;2023-05-21T04:53:49;19.23;;;10.02;;
21675;SDS011;10999;51.332;9.458;2023-05-21T04:56:16;19.88;;;10.40;;
21675;SDS011;10999;51.332;9.458;2023-05-21T04:58:46;22.08;;;11.00;;
21675;SDS011;10999;51.332;9.458;2023-05-21T05:01:14;21.98;;;10.82;;
21675;SDS011;10999;51.332;9.458;2023-05-21T05:03:41;20.40;;;10.80;;
21675;SDS011;10999;51.332;9.458;2023-05-21T05:06:08;16.50;;;9.50;;
21675;SDS011;10999;51.332;9.458;2023-05-21T05:08:35;18.48;;;9.52;;
21675;SDS011;10999;51.332;9.458;2023-05-21T05:11:01;21.42;;;11.43;;
21675;SDS011;10999;51.332;9.458;2023-05-21T05:13:28;19.85;;;11.25;;
21675;SDS011;10999;51.332;9.458;2023-05-21T05:15:55;23.65;;;10.65;;
21675;SDS011;10999;51.332;9.458;2023-05-21T05:18:22;22.25;;;10.88;;
21675;SDS011;10999;51.332;9.458;2023-05-21T05:20:49;22.42;;;10.95;;
21675;SDS011;10999;51.332;9.458;2023-05-21T05:23:16;19.50;;;10.50;;
21675;SDS011;10999;51.332;9.458;2023-05-21T05:25:43;20.80;;;10.68;;
21675;SDS011;10999;51.332;9.458;2023-05-21T05:28:09;22.20;;;11.13;;
21675;SDS011;10999;51.332;9.458;2023-05-21T05:30:36;17.83;;;10.30;;
21675;SDS011;10999;51.332;9.458;2023-05-21T05:33:03;21.52;;;11.13;;
21675;SDS011;10999;51.332;9.458;2023-05-21T05:35:30;22.67;;;11.20;;
21675;SDS011;10999;51.332;9.458;2023-05-21T05:37:57;22.35;;;11.55;;
21675;SDS011;10999;51.332;9.458;2023-05-21T05:40:23;21.08;;;11.77;;
21675;SDS011;10999;51.332;9.458;2023-05-21T05:42:50;19.35;;;10.95;;
21675;SDS011;10999;51.332;9.458;2023-05-21T05:45:18;24.08;;;11.80;;
21675;SDS011;10999;51.332;9.458;2023-05-21T05:47:45;21.70;;;11.63;;
21675;SDS011;10999;51.332;9.458;2023-05-21T05:50:12;17.83;;;10.38;;
21675;SDS011;10999;51.332;9.458;2023-05-21T05:52:38;19.00;;;10.57;;
21675;SDS011;10999;51.332;9.458;2023-05-21T05:55:05;20.90;;;11.00;;
21675;SDS011;10999;51.332;9.458;2023-05-21T05:57:34;21.83;;;10.98;;
21675;SDS011;10999;51.332;9.458;2023-05-21T06:00:01;20.85;;;10.93;;
21675;SDS011;10999;51.332;9.458;2023-05-21T06:02:29;19.45;;;11.05;;
21675;SDS011;10999;51.332;9.458;2023-05-21T06:04:56;18.88;;;10.85;;
21675;SDS011;10999;51.332;9.458;2023-05-21T06:07:23;20.83;;;11.30;;
21675;SDS011;10999;51.332;9.458;2023-05-21T06:09:50;21.23;;;11.15;;
21675;SDS011;10999;51.332;9.458;2023-05-21T06:12:16;20.40;;;11.30;;
21675;SDS011;10999;51.332;9.458;2023-05-21T06:14:43;18.90;;;10.35;;
21675;SDS011;10999;51.332;9.458;2023-05-21T06:17:11;19.75;;;10.27;;
21675;SDS011;10999;51.332;9.458;2023-05-21T06:19:38;20.55;;;11.85;;
21675;SDS011;10999;51.332;9.458;2023-05-21T06:22:05;19.67;;;11.20;;
21675;SDS011;10999;51.332;9.458;2023-05-21T06:24:32;21.48;;;10.80;;
21675;SDS011;10999;51.332;9.458;2023-05-21T06:26:58;21.02;;;11.73;;
21675;SDS011;10999;51.332;9.458;2023-05-21T06:29:26;20.40;;;10.88;;
21675;SDS011;10999;51.332;9.458;2023-05-21T06:31:52;22.13;;;11.32;;
21675;SDS011;10999;51.332;9.458;2023-05-21T06:34:19;17.88;;;10.32;;
21675;SDS011;10999;51.332;9.458;2023-05-21T06:36:46;18.55;;;10.43;;
21675;SDS011;10999;51.332;9.458;2023-05-21T06:39:13;23.08;;;11.38;;
21675;SDS011;10999;51.332;9.458;2023-05-21T06:41:40;20.02;;;10.32;;
21675;SDS011;10999;51.332;9.458;2023-05-21T06:44:07;20.38;;;10.68;;
21675;SDS011;10999;51.332;9.458;2023-05-21T06:46:33;19.35;;;10.55;;
21675;SDS011;10999;51.332;9.458;2023-05-21T06:49:01;19.45;;;10.50;;
21675;SDS011;10999;51.332;9.458;2023-05-21T06:51:27;20.55;;;11.73;;
21675;SDS011;10999;51.332;9.458;2023-05-21T06:53:54;20.25;;;10.82;;
21675;SDS011;10999;51.332;9.458;2023-05-21T06:56:21;21.02;;;10.95;;
21675;SDS011;10999;51.332;9.458;2023-05-21T06:58:48;20.98;;;11.02;;
21675;SDS011;10999;51.332;9.458;2023-05-21T07:01:14;21.40;;;11.80;;
21675;SDS011;10999;51.332;9.458;2023-05-21T07:03:41;20.70;;;10.30;;
21675;SDS011;10999;51.332;9.458;2023-05-21T07:06:08;20.58;;;11.05;;
21675;SDS011;10999;51.332;9.458;2023-05-21T07:08:35;20.13;;;10.88;;
21675;SDS011;10999;51.332;9.458;2023-05-21T07:11:02;21.27;;;11.60;;
21675;SDS011;10999;51.332;9.458;2023-05-21T07:13:28;20.50;;;11.35;;
21675;SDS011;10999;51.332;9.458;2023-05-21T07:15:55;20.67;;;12.20;;
21675;SDS011;10999;51.332;9.458;2023-05-21T07:18:22;19.48;;;11.95;;
21675;SDS011;10999;51.332;9.458;2023-05-21T07:20:49;21.48;;;12.10;;
21675;SDS011;10999;51.332;9.458;2023-05-21T07:23:16;17.80;;;9.80;;
21675;SDS011;10999;51.332;9.458;2023-05-21T07:25:42;19.05;;;10.70;;
21675;SDS011;10999;51.332;9.458;2023-05-21T07:28:09;23.00;;;12.25;;
21675;SDS011;10999;51.332;9.458;2023-05-21T07:30:36;24.33;;;12.15;;
21675;SDS011;10999;51.332;9.458;2023-05-21T07:33:03;18.77;;;11.57;;
21675;SDS011;10999;51.332;9.458;2023-05-21T07:35:30;18.38;;;10.80;;
21675;SDS011;10999;51.332;9.458;2023-05-21T07:37:56;19.85;;;11.82;;
21675;SDS011;10999;51.332;9.458;2023-05-21T07:40:23;18.75;;;11.25;;
21675;SDS011;10999;51.332;9.458;2023-05-21T07:42:50;22.23;;;11.70;;
21675;SDS011;10999;51.332;9.458;2023-05-21T07:45:17;19.85;;;10.65;;
21675;SDS011;10999;51.332;9.458;2023-05-21T07:47:44;20.23;;;11.65;;
21675;SDS011;10999;51.332;9.458;2023-05-21T07:50:12;18.70;;;11.05;;
21675;SDS011;10999;51.332;9.458;2023-05-21T07:52:39;18.63;;;10.52;;
21675;SDS011;10999;51.332;9.458;2023-05-21T07:55:07;22.27;;;12.50;;
21675;SDS011;10999;51.332;9.458;2023-05-21T07:57:34;20.65;;;12.05;;
21675;SDS011;10999;51.332;9.458;2023-05-21T08:00:02;20.52;;;12.25;;
21675;SDS011;10999;51.332;9.458;2023-05-21T08:02:30;23.35;;;11.55;;
21675;SDS011;10999;51.332;9.458;2023-05-21T08:04:57;20.77;;;12.38;;
21675;SDS011;10999;51.332;9.458;2023-05-21T08:07:24;19.33;;;11.60;;
21675;SDS011;10999;51.332;9.458;2023-05-21T08:09:51;24.40;;;13.15;;
21675;SDS011;10999;51.332;9.458;2023-05-21T08:12:19;19.63;;;10.48;;
21675;SDS011;10999;51.332;9.458;2023-05-21T08:14:46;20.55;;;10.95;;
21675;SDS011;10999;51.332;9.458;2023-05-21T08:17:13;18.92;;;11.70;;
21675;SDS011;10999;51.332;9.458;2023-05-21T08:19:41;19.92;;;11.65;;
21675;SDS011;10999;51.332;9.458;2023-05-21T08:22:08;18.85;;;10.32;;
21675;SDS011;10999;51.332;9.458;2023-05-21T08:24:35;17.73;;;10.52;;
21675;SDS011;10999;51.332;9.458;2023-05-21T08:27:02;19.05;;;10.32;;
21675;SDS011;10999;51.332;9.458;2023-05-21T08:29:28;21.38;;;11.35;;
21675;SDS011;10999;51.332;9.458;2023-05-21T08:31:56;20.70;;;12.30;;
21675;SDS011;10999;51.332;9.458;2023-05-21T08:34:24;18.88;;;11.00;;
21675;SDS011;10999;51.332;9.458;2023-05-21T08:36:56;19.25;;;11.38;;
21675;SDS011;10999;51.332;9.458;2023-05-21T08:39:23;20.23;;;11.27;;
21675;SDS011;10999;51.332;9.458;2023-05-21T08:41:50;18.38;;;11.32;;
21675;SDS011;10999;51.332;9.458;2023-05-21T08:44:22;23.85;;;12.82;;
21675;SDS011;10999;51.332;9.458;2023-05-21T08:46:52;18.00;;;10.90;;
21675;SDS011;10999;51.332;9.458;2023-05-21T08:49:21;20.58;;;11.25;;
21675;SDS011;10999;51.332;9.458;2023-05-21T08:51:54;20.20;;;12.60;;
21675;SDS011;10999;51.332;9.458;2023-05-21T08:54:21;19.08;;;10.55;;
21675;SDS011;10999;51.332;9.458;2023-05-21T08:56:48;18.85;;;11.32;;
21675;SDS011;10999;51.332;9.458;2023-05-21T08:59:16;18.33;;;10.80;;
21675;SDS011;10999;51.332;9.458;2023-05-21T09:01:45;21.13;;;11.63;;
21675;SDS011;10999;51.332;9.458;2023-05-21T09:04:12;18.00;;;11.65;;
21675;SDS011;10999;51.332;9.458;2023-05-21T09:06:47;16.35;;;10.13;;
21675;SDS011;10999;51.332;9.458;2023-05-21T09:09:20;17.60;;;10.70;;
21675;SDS011;10999;51.332;9.458;2023-05-21T09:11:53;20.10;;;10.95;;
21675;SDS011;10999;51.332;9.458;2023-05-21T09:14:19;20.30;;;10.68;;
21675;SDS011;10999;51.332;9.458;2023-05-21T09:16:48;18.63;;;11.70;;
21675;SDS011;10999;51.332;9.458;2023-05-21T09:19:21;16.05;;;10.63;;
21675;SDS011;10999;51.332;9.458;2023-05-21T09:21:50;18.38;;;11.45;;
21675;SDS011;10999;51.332;9.458;2023-05-21T09:24:20;16.38;;;10.60;;
21675;SDS011;10999;51.332;9.458;2023-05-21T09:26:50;17.48;;;10.18;;
21675;SDS011;10999;51.332;9.458;2023-05-21T09:29:17;18.83;;;11.43;;
21675;SDS011;10999;51.332;9.458;2023-05-21T09:31:44;17.95;;;11.35;;
21675;SDS011;10999;51.332;9.458;2023-05-21T09:34:11;19.23;;;10.80;;
21675;SDS011;10999;51.332;9.458;2023-05-21T09:36:39;17.92;;;10.80;;
21675;SDS011;10999;51.332;9.458;2023-05-21T09:39:06;17.73;;;11.25;;
21675;SDS011;10999;51.332;9.458;2023-05-21T09:41:33;16.15;;;10.13;;
21675;SDS011;10999;51.332;9.458;2023-05-21T09:44:02;19.50;;;10.63;;
21675;SDS011;10999;51.332;9.458;2023-05-21T09:46:38;16.35;;;10.18;;
21675;SDS011;10999;51.332;9.458;2023-05-21T09:49:06;17.17;;;10.35;;
21675;SDS011;10999;51.332;9.458;2023-05-21T09:51:48;18.58;;;10.70;;
21675;SDS011;10999;51.332;9.458;2023-05-21T09:54:15;16.77;;;10.13;;
21675;SDS011;10999;51.332;9.458;2023-05-21T09:56:42;16.42;;;10.23;;
21675;SDS011;10999;51.332;9.458;2023-05-21T09:59:08;17.13;;;11.23;;
21675;SDS011;10999;51.332;9.458;2023-05-21T10:01:35;18.45;;;11.15;;
21675;SDS011;10999;51.332;9.458;2023-05-21T10:04:07;18.60;;;10.98;;
21675;SDS011;10999;51.332;9.458;2023-05-21T10:06:36;16.77;;;11.13;;
21675;SDS011;10999;51.332;9.458;2023-05-21T10:09:08;17.70;;;10.70;;
21675;SDS011;10999;51.332;9.458;2023-05-21T10:11:36;19.70;;;11.93;;
21675;SDS011;10999;51.332;9.458;2023-05-21T10:14:05;18.23;;;10.45;;
21675;SDS011;10999;51.332;9.458;2023-05-21T10:16:34;18.50;;;10.35;;
21675;SDS011;10999;51.332;9.458;2023-05-21T10:19:02;17.38;;;10.18;;
21675;SDS011;10999;51.332;9.458;2023-05-21T10:21:36;20.35;;;12.13;;
21675;SDS011;10999;51.332;9.458;2023-05-21T10:24:05;21.60;;;11.52;;
21675;SDS011;10999;51.332;9.458;2023-05-21T10:26:33;16.83;;;10.05;;
21675;SDS011;10999;51.332;9.458;2023-05-21T10:29:01;16.83;;;10.25;;
21675;SDS011;10999;51.332;9.458;2023-05-21T10:31:28;17.30;;;11.88;;
21675;SDS011;10999;51.332;9.458;2023-05-21T10:33:56;16.83;;;10.63;;
21675;SDS011;10999;51.332;9.458;2023-05-21T10:36:24;16.75;;;10.48;;
21675;SDS011;10999;51.332;9.458;2023-05-21T10:38:52;15.80;;;9.55;;
21675;SDS011;10999;51.332;9.458;2023-05-21T10:41:20;17.98;;;10.48;;
21675;SDS011;10999;51.332;9.458;2023-05-21T10:46:22;17.05;;;10.63;;
21675;SDS011;10999;51.332;9.458;2023-05-21T10:48:59;19.30;;;11.00;;
21675;SDS011;10999;51.332;9.458;2023-05-21T11:02:06;18.20;;;10.27;;
21675;SDS011;10999;51.332;9.458;2023-05-21T11:04:34;17.95;;;10.68;;
21675;SDS011;10999;51.332;9.458;2023-05-21T11:07:05;20.52;;;11.32;;
21675;SDS011;10999;51.332;9.458;2023-05-21T11:09:31;17.48;;;10.70;;
21675;SDS011;10999;51.332;9.458;2023-05-21T11:11:58;19.42;;;11.95;;
21675;SDS011;10999;51.332;9.458;2023-05-21T11:14:39;17.75;;;10.68;;
21675;SDS011;10999;51.332;9.458;2023-05-21T11:19:37;17.13;;;10.93;;
21675;SDS011;10999;51.332;9.458;2023-05-21T11:22:06;16.60;;;11.10;;
21675;SDS011;10999;51.332;9.458;2023-05-21T11:24:46;18.45;;;11.57;;
21675;SDS011;10999;51.332;9.458;2023-05-21T11:27:29;17.15;;;11.02;;
21675;SDS011;10999;51.332;9.458;2023-05-21T11:30:06;18.88;;;11.57;;
21675;SDS011;10999;51.332;9.458;2023-05-21T11:32:38;18.92;;;11.88;;
21675;SDS011;10999;51.332;9.458;2023-05-21T11:35:26;17.33;;;11.23;;
21675;SDS011;10999;51.332;9.458;2023-05-21T11:37:53;20.17;;;11.77;;
21675;SDS011;10999;51.332;9.458;2023-05-21T11:40:23;18.10;;;10.90;;
21675;SDS011;10999;51.332;9.458;2023-05-21T11:42:54;14.68;;;9.93;;
21675;SDS011;10999;51.332;9.458;2023-05-21T11:45:22;17.50;;;10.45;;
21675;SDS011;10999;51.332;9.458;2023-05-21T11:47:53;17.65;;;11.18;;
21675;SDS011;10999;51.332;9.458;2023-05-21T11:50:21;15.63;;;10.80;;
21675;SDS011;10999;51.332;9.458;2023-05-21T11:52:48;15.85;;;10.27;;
21675;SDS011;10999;51.332;9.458;2023-05-21T11:55:20;14.60;;;10.75;;
21675;SDS011;10999;51.332;9.458;2023-05-21T11:57:47;16.02;;;10.70;;
21675;SDS011;10999;51.332;9.458;2023-05-21T12:00:18;17.23;;;10.98;;
21675;SDS011;10999;51.332;9.458;2023-05-21T12:02:47;17.90;;;10.75;;
21675;SDS011;10999;51.332;9.458;2023-05-21T12:05:18;16.42;;;9.82;;
21675;SDS011;10999;51.332;9.458;2023-05-21T12:07:45;16.05;;;10.93;;
21675;SDS011;10999;51.332;9.458;2023-05-21T12:10:19;18.40;;;10.50;;
21675;SDS011;10999;51.332;9.458;2023-05-21T12:12:46;18.23;;;10.13;;
21675;SDS011;10999;51.332;9.458;2023-05-21T12:15:22;15.43;;;10.02;;
21675;SDS011;10999;51.332;9.458;2023-05-21T12:17:50;15.27;;;10.27;;
21675;SDS011;10999;51.332;9.458;2023-05-21T12:20:18;16.77;;;10.98;;
21675;SDS011;10999;51.332;9.458;2023-05-21T12:22:47;14.20;;;9.95;;
21675;SDS011;10999;51.332;9.458;2023-05-21T12:25:16;15.70;;;9.95;;
21675;SDS011;10999;51.332;9.458;2023-05-21T12:27:45;16.48;;;10.27;;
21675;SDS011;10999;51.332;9.458;2023-05-21T12:30:12;14.35;;;9.60;;
21675;SDS011;10999;51.332;9.458;2023-05-21T12:32:40;16.30;;;10.20;;
21675;SDS011;10999;51.332;9.458;2023-05-21T12:35:18;15.65;;;10.13;;
21675;SDS011;10999;51.332;9.458;2023-05-21T12:37:46;15.77;;;9.70;;
21675;SDS011;10999;51.332;9.458;2023-05-21T12:40:13;16.85;;;9.98;;
21675;SDS011;10999;51.332;9.458;2023-05-21T12:42:40;14.35;;;8.90;;
21675;SDS011;10999;51.332;9.458;2023-05-21T12:45:09;14.15;;;9.98;;
21675;SDS011;10999;51.332;9.458;2023-05-21T12:47:36;13.75;;;9.10;;
21675;SDS011;10999;51.332;9.458;2023-05-21T12:50:06;13.98;;;9.82;;
21675;SDS011;10999;51.332;9.458;2023-05-21T12:52:38;15.68;;;10.57;;
21675;SDS011;10999;51.332;9.458;2023-05-21T12:55:06;13.85;;;9.88;;
21675;SDS011;10999;51.332;9.458;2023-05-21T12:57:35;13.43;;;9.52;;
21675;SDS011;10999;51.332;9.458;2023-05-21T13:00:05;15.15;;;10.25;;
21675;SDS011;10999;51.332;9.458;2023-05-21T13:05:03;13.45;;;8.63;;
21675;SDS011;10999;51.332;9.458;2023-05-21T13:07:32;14.40;;;8.90;;
21675;SDS011;10999;51.332;9.458;2023-05-21T13:10:01;13.52;;;9.15;;
21675;SDS011;10999;51.332;9.458;2023-05-21T13:12:29;14.18;;;9.00;;
21675;SDS011;10999;51.332;9.458;2023-05-21T13:14:57;14.93;;;9.70;;
21675;SDS011;10999;51.332;9.458;2023-05-21T13:17:26;15.80;;;9.23;;
21675;SDS011;10999;51.332;9.458;2023-05-21T13:20:04;15.68;;;9.85;;
21675;SDS011;10999;51.332;9.458;2023-05-21T13:22:40;15.20;;;10.00;;
21675;SDS011;10999;51.332;9.458;2023-05-21T13:25:12;15.23;;;9.20;;
21675;SDS011;10999;51.332;9.458;2023-05-21T13:27:50;16.00;;;9.60;;
21675;SDS011;10999;51.332;9.458;2023-05-21T13:30:18;15.52;;;9.65;;
21675;SDS011;10999;51.332;9.458;2023-05-21T13:32:46;15.07;;;10.02;;
21675;SDS011;10999;51.332;9.458;2023-05-21T13:35:14;14.63;;;9.10;;
21675;SDS011;10999;51.332;9.458;2023-05-21T13:37:42;13.50;;;9.15;;
21675;SDS011;10999;51.332;9.458;2023-05-21T13:40:09;14.95;;;10.05;;
21675;SDS011;10999;51.332;9.458;2023-05-21T13:42:37;15.13;;;8.98;;
21675;SDS011;10999;51.332;9.458;2023-05-21T13:45:04;15.43;;;9.88;;
21675;SDS011;10999;51.332;9.458;2023-05-21T13:47:36;13.75;;;9.00;;
21675;SDS011;10999;51.332;9.458;2023-05-21T13:50:06;15.73;;;10.00;;
21675;SDS011;10999;51.332;9.458;2023-05-21T13:52:33;12.30;;;8.50;;
21675;SDS011;10999;51.332;9.458;2023-05-21T13:55:00;14.45;;;9.23;;
21675;SDS011;10999;51.332;9.458;2023-05-21T13:57:27;13.95;;;8.70;;
21675;SDS011;10999;51.332;9.458;2023-05-21T13:59:56;14.90;;;9.15;;
21675;SDS011;10999;51.332;9.458;2023-05-21T14:02:23;12.88;;;8.82;;
21675;SDS011;10999;51.332;9.458;2023-05-21T14:04:50;18.88;;;8.77;;
21675;SDS011;10999;51.332;9.458;2023-05-21T14:07:17;13.02;;;8.10;;
21675;SDS011;10999;51.332;9.458;2023-05-21T14:09:44;14.13;;;8.98;;
21675;SDS011;10999;51.332;9.458;2023-05-21T14:12:12;14.52;;;9.20;;
21675;SDS011;10999;51.332;9.458;2023-05-21T14:14:39;14.60;;;8.70;;
21675;SDS011;10999;51.332;9.458;2023-05-21T14:17:06;14.27;;;8.13;;
21675;SDS011;10999;51.332;9.458;2023-05-21T14:19:33;15.85;;;8.95;;
21675;SDS011;10999;51.332;9.458;2023-05-21T14:22:00;14.50;;;8.75;;
21675;SDS011;10999;51.332;9.458;2023-05-21T14:24:27;12.57;;;7.93;;
21675;SDS011;10999;51.332;9.458;2023-05-21T14:26:53;14.68;;;9.57;;
21675;SDS011;10999;51.332;9.458;2023-05-21T14:29:20;13.48;;;8.65;;
21675;SDS011;10999;51.332;9.458;2023-05-21T14:31:47;13.32;;;8.13;;
21675;SDS011;10999;51.332;9.458;2023-05-21T14:34:14;14.80;;;8.68;;
21675;SDS011;10999;51.332;9.458;2023-05-21T14:36:41;14.18;;;9.68;;
21675;SDS011;10999;51.332;9.458;2023-05-21T14:39:07;15.43;;;9.75;;
21675;SDS011;10999;51.332;9.458;2023-05-21T14:41:36;13.90;;;8.38;;
21675;SDS011;10999;51.332;9.458;2023-05-21T14:44:04;12.82;;;7.30;;
21675;SDS011;10999;51.332;9.458;2023-05-21T14:46:30;13.23;;;8.52;;
21675;SDS011;10999;51.332;9.458;2023-05-21T14:48:58;13.05;;;8.25;;
21675;SDS011;10999;51.332;9.458;2023-05-21T14:51:25;12.63;;;8.13;;